createdAt,value
2022-11-04T00:02:09.666Z,98302.00
2022-11-04T00:04:36.641Z,98313.00
2022-11-04T00:07:23.517Z,98307.00
2022-11-04T00:09:50.309Z,98303.00
2022-11-04T00:12:25.798Z,98300.00
2022-11-04T00:14:53.150Z,98298.00
2022-11-04T00:17:20.228Z,98309.00
2022-11-04T00:20:11.577Z,98306.00
2022-11-04T00:22:59.406Z,98301.00
2022-11-04T00:25:45.960Z,98313.00
2022-11-04T00:28:37.245Z,98326.00
2022-11-04T00:31:26.297Z,98325.00
2022-11-04T00:33:56.045Z,98324.00
2022-11-04T00:36:25.364Z,98325.00
2022-11-04T00:38:52.364Z,98323.00
2022-11-04T00:41:28.862Z,98318.00
2022-11-04T00:44:01.917Z,98328.00
2022-11-04T00:46:31.929Z,98325.00
2022-11-04T00:48:59.387Z,98313.00
2022-11-04T00:51:26.490Z,98313.00
2022-11-04T00:53:54.084Z,98314.00
2022-11-04T00:56:20.967Z,98305.00
2022-11-04T00:58:49.499Z,98300.00
2022-11-04T01:01:18.523Z,98299.00
2022-11-04T01:03:51.342Z,98306.00
2022-11-04T01:06:20.531Z,98299.00
2022-11-04T01:08:48.138Z,98290.00
2022-11-04T01:11:15.530Z,98302.00
2022-11-04T01:13:42.382Z,98289.00
2022-11-04T01:16:12.962Z,98301.00
2022-11-04T01:18:41.040Z,98307.00
2022-11-04T01:21:12.968Z,98302.00
2022-11-04T01:23:42.108Z,98293.00
2022-11-04T01:26:19.001Z,98288.00
2022-11-04T01:28:46.917Z,98282.00
2022-11-04T01:31:18.255Z,98283.00
2022-11-04T01:33:45.011Z,98288.00
2022-11-04T01:36:12.209Z,98280.00
2022-11-04T01:38:39.316Z,98286.00
2022-11-04T01:41:08.719Z,98281.00
2022-11-04T01:43:54.569Z,98282.00
2022-11-04T01:46:42.132Z,98292.00
2022-11-04T01:49:37.915Z,98291.00
2022-11-04T01:52:15.761Z,98293.00
2022-11-04T01:54:47.796Z,98293.00
2022-11-04T01:57:23.729Z,98285.00
2022-11-04T01:59:50.761Z,98287.00
2022-11-04T02:02:17.605Z,98279.00
2022-11-04T02:04:45.074Z,98278.00
2022-11-04T02:07:13.468Z,98274.00
2022-11-04T02:09:42.008Z,98263.00
2022-11-04T02:12:27.777Z,98253.00
2022-11-04T02:14:55.804Z,98248.00
2022-11-04T02:17:38.867Z,98249.00
2022-11-04T02:20:40.972Z,98251.00
2022-11-04T02:23:58.569Z,98238.00
2022-11-04T02:27:01.036Z,98241.00
2022-11-04T02:29:51.717Z,98241.00
2022-11-04T02:33:00.048Z,98258.00
2022-11-04T02:35:52.875Z,98248.00
2022-11-04T02:38:28.301Z,98263.00
2022-11-04T02:41:04.624Z,98264.00
2022-11-04T02:44:09.887Z,98255.00
2022-11-04T02:46:52.967Z,98255.00
2022-11-04T02:49:47.846Z,98259.00
2022-11-04T02:52:32.622Z,98252.00
2022-11-04T02:55:15.395Z,98254.00
2022-11-04T02:57:44.276Z,98249.00
2022-11-04T03:00:13.766Z,98235.00
2022-11-04T03:02:42.634Z,98237.00
2022-11-04T03:05:18.725Z,98245.00
2022-11-04T03:07:49.460Z,98253.00
2022-11-04T03:10:26.051Z,98254.00
2022-11-04T03:13:03.268Z,98245.00
2022-11-04T03:15:34.907Z,98243.00
2022-11-04T03:18:36.930Z,98244.00
2022-11-04T03:21:09.199Z,98237.00
2022-11-04T03:23:36.783Z,98238.00
2022-11-04T03:26:32.503Z,98233.00
2022-11-04T03:29:16.982Z,98237.00
2022-11-04T03:32:04.952Z,98224.00
2022-11-04T03:34:32.617Z,98205.00
2022-11-04T03:36:59.888Z,98204.00
2022-11-04T03:39:26.869Z,98219.00
2022-11-04T03:41:58.442Z,98224.00
2022-11-04T03:44:25.878Z,98218.00
2022-11-04T03:46:54.511Z,98198.00
2022-11-04T03:49:23.604Z,98200.00
2022-11-04T03:51:52.587Z,98214.00
2022-11-04T03:54:20.335Z,98209.00
2022-11-04T03:57:05.548Z,98205.00
2022-11-04T04:00:03.004Z,98203.00
2022-11-04T04:03:18.193Z,98194.00
2022-11-04T04:06:24.106Z,98194.00
2022-11-04T04:08:57.457Z,98188.00
2022-11-04T04:11:41.207Z,98196.00
2022-11-04T04:14:56.928Z,98199.00
2022-11-04T04:17:56.141Z,98191.00
2022-11-04T04:20:27.741Z,98199.00
2022-11-04T04:23:44.908Z,98199.00
2022-11-04T04:26:33.833Z,98207.00
2022-11-04T04:29:03.501Z,98212.00
2022-11-04T04:31:52.485Z,98213.00
2022-11-04T04:34:27.751Z,98219.00
2022-11-04T04:37:12.073Z,98213.00
2022-11-04T04:40:05.832Z,98206.00
2022-11-04T04:42:53.289Z,98208.00
2022-11-04T04:45:30.213Z,98197.00
2022-11-04T04:47:57.685Z,98200.00
2022-11-04T04:50:30.734Z,98195.00
2022-11-04T04:53:00.067Z,98190.00
2022-11-04T04:55:27.033Z,98184.00
2022-11-04T04:57:53.803Z,98179.00
2022-11-04T05:00:21.429Z,98176.00
2022-11-04T05:02:49.044Z,98165.00
2022-11-04T05:07:48.332Z,98163.00
2022-11-04T05:10:17.119Z,98158.00
2022-11-04T05:13:03.653Z,98147.00
2022-11-04T05:15:31.428Z,98141.00
2022-11-04T05:18:02.278Z,98139.00
2022-11-04T05:20:30.288Z,98140.00
2022-11-04T05:22:57.284Z,98142.00
2022-11-04T05:25:24.115Z,98134.00
2022-11-04T05:27:50.908Z,98127.00
2022-11-04T05:30:18.084Z,98141.00
2022-11-04T05:32:44.856Z,98139.00
2022-11-04T05:35:11.754Z,98135.00
2022-11-04T05:37:38.542Z,98138.00
2022-11-04T05:40:06.139Z,98133.00
2022-11-04T05:42:32.873Z,98134.00
2022-11-04T05:44:59.622Z,98136.00
2022-11-04T05:47:26.391Z,98136.00
2022-11-04T05:49:53.201Z,98145.00
2022-11-04T05:52:19.955Z,98140.00
2022-11-04T05:54:47.429Z,98135.00
2022-11-04T05:57:14.305Z,98136.00
2022-11-04T05:59:41.056Z,98129.00
2022-11-04T06:02:08.132Z,98136.00
2022-11-04T06:04:35.163Z,98139.00
2022-11-04T06:07:01.932Z,98138.00
2022-11-04T06:09:40.576Z,98133.00
2022-11-04T06:12:17.595Z,98130.00
2022-11-04T06:14:44.865Z,98122.00
2022-11-04T06:17:21.363Z,98120.00
2022-11-04T06:19:49.337Z,98119.00
2022-11-04T06:22:19.169Z,98119.00
2022-11-04T06:24:46.560Z,98109.00
2022-11-04T06:27:15.092Z,98114.00
2022-11-04T06:29:42.122Z,98123.00
2022-11-04T06:32:12.683Z,98134.00
2022-11-04T06:34:40.244Z,98128.00
2022-11-04T06:37:07.684Z,98143.00
2022-11-04T06:39:34.545Z,98139.00
2022-11-04T06:42:02.894Z,98149.00
2022-11-04T06:44:30.350Z,98146.00
2022-11-04T06:46:57.668Z,98159.00
2022-11-04T06:49:24.462Z,98160.00
2022-11-04T06:51:52.021Z,98161.00
2022-11-04T06:54:19.262Z,98165.00
2022-11-04T06:56:47.234Z,98163.00
2022-11-04T06:59:18.612Z,98172.00
2022-11-04T07:01:47.155Z,98174.00
2022-11-04T07:04:14.184Z,98174.00
2022-11-04T07:06:44.884Z,98172.00
2022-11-04T07:09:15.258Z,98173.00
2022-11-04T07:11:44.197Z,98171.00
2022-11-04T07:14:11.804Z,98166.00
2022-11-04T07:16:38.682Z,98165.00
2022-11-04T07:19:06.575Z,98169.00
2022-11-04T07:21:33.405Z,98159.00
2022-11-04T07:24:01.911Z,98168.00
2022-11-04T07:26:28.717Z,98167.00
2022-11-04T07:28:55.534Z,98177.00
2022-11-04T07:31:22.398Z,98175.00
2022-11-04T07:33:51.259Z,98173.00
2022-11-04T07:36:19.192Z,98172.00
2022-11-04T07:38:46.998Z,98168.00
2022-11-04T07:41:14.859Z,98168.00
2022-11-04T07:43:41.677Z,98169.00
2022-11-04T07:46:12.812Z,98165.00
2022-11-04T07:48:40.022Z,98164.00
2022-11-04T07:51:12.852Z,98167.00
2022-11-04T07:53:39.709Z,98158.00
2022-11-04T07:56:08.959Z,98157.00
2022-11-04T07:58:35.817Z,98159.00
2022-11-04T08:01:06.893Z,98151.00
2022-11-04T08:03:35.407Z,98153.00
2022-11-04T08:06:04.485Z,98142.00
2022-11-04T08:08:31.642Z,98145.00
2022-11-04T08:11:06.535Z,98140.00
2022-11-04T08:13:36.760Z,98139.00
2022-11-04T08:16:10.428Z,98140.00
2022-11-04T08:18:37.289Z,98131.00
2022-11-04T08:21:04.942Z,98130.00
2022-11-04T08:23:34.213Z,98128.00
2022-11-04T08:26:01.678Z,98127.00
2022-11-04T08:28:29.632Z,98114.00
2022-11-04T08:31:24.871Z,98110.00
2022-11-04T08:33:53.440Z,98124.00
2022-11-04T08:36:30.776Z,98117.00
2022-11-04T08:38:58.610Z,98121.00
2022-11-04T08:41:30.794Z,98122.00
2022-11-04T08:44:04.135Z,98119.00
2022-11-04T08:46:38.375Z,98119.00
2022-11-04T08:49:09.650Z,98109.00
2022-11-04T08:51:43.614Z,98107.00
2022-11-04T08:54:11.078Z,98111.00
2022-11-04T08:56:40.447Z,98101.00
2022-11-04T08:59:08.213Z,98098.00
2022-11-04T09:01:37.316Z,98101.00
2022-11-04T09:04:06.714Z,98109.00
2022-11-04T09:06:38.016Z,98112.00
2022-11-04T09:09:09.231Z,98118.00
2022-11-04T09:11:40.866Z,98128.00
2022-11-04T09:14:08.125Z,98119.00
2022-11-04T09:16:37.101Z,98118.00
2022-11-04T09:19:04.340Z,98124.00
2022-11-04T09:21:31.224Z,98137.00
2022-11-04T09:23:58.084Z,98139.00
2022-11-04T09:26:26.219Z,98134.00
2022-11-04T09:28:58.308Z,98139.00
2022-11-04T09:31:28.936Z,98139.00
2022-11-04T09:33:56.128Z,98141.00
2022-11-04T09:36:23.821Z,98140.00
2022-11-04T09:38:50.716Z,98147.00
2022-11-04T09:41:57.604Z,98150.00
2022-11-04T09:44:59.681Z,98146.00
2022-11-04T09:47:26.963Z,98139.00
2022-11-04T09:50:00.257Z,98146.00
2022-11-04T09:52:46.466Z,98142.00
2022-11-04T09:55:24.545Z,98153.00
2022-11-04T09:57:58.445Z,98147.00
2022-11-04T10:00:26.276Z,98145.00
2022-11-04T10:03:45.766Z,98157.00
2022-11-04T10:07:14.030Z,98156.00
2022-11-04T10:10:03.256Z,98148.00
2022-11-04T10:12:54.167Z,98141.00
2022-11-04T10:15:46.797Z,98148.00
2022-11-04T10:18:46.888Z,98144.00
2022-11-04T10:21:47.977Z,98146.00
2022-11-04T10:24:40.353Z,98135.00
2022-11-04T10:27:17.368Z,98136.00
2022-11-04T10:30:14.029Z,98145.00
2022-11-04T10:33:09.164Z,98141.00
2022-11-04T10:35:45.048Z,98147.00
2022-11-04T10:38:45.662Z,98150.00
2022-11-04T10:41:24.482Z,98151.00
2022-11-04T10:44:04.593Z,98147.00
2022-11-04T10:46:54.290Z,98145.00
2022-11-04T10:50:29.030Z,98148.00
2022-11-04T10:53:24.621Z,98148.00
2022-11-04T10:55:59.776Z,98137.00
2022-11-04T10:58:33.558Z,98137.00
2022-11-04T11:01:25.089Z,98135.00
2022-11-04T11:03:52.437Z,98135.00
2022-11-04T11:06:29.969Z,98136.00
2022-11-04T11:09:22.354Z,98132.00
2022-11-04T11:11:52.930Z,98135.00
2022-11-04T11:14:28.946Z,98126.00
2022-11-04T11:17:16.014Z,98127.00
2022-11-04T11:19:50.749Z,98121.00
2022-11-04T11:22:36.928Z,98125.00
2022-11-04T11:25:32.287Z,98130.00
2022-11-04T11:28:24.902Z,98116.00
2022-11-04T11:31:13.274Z,98118.00
2022-11-04T11:34:05.431Z,98130.00
2022-11-04T11:36:37.634Z,98125.00
2022-11-04T11:39:21.935Z,98111.00
2022-11-04T11:42:01.942Z,98118.00
2022-11-04T11:44:47.852Z,98108.00
2022-11-04T11:47:38.084Z,98112.00
2022-11-04T11:50:18.571Z,98115.00
2022-11-04T11:52:48.026Z,98115.00
2022-11-04T11:55:28.161Z,98116.00
2022-11-04T12:01:46.830Z,98120.00
2022-11-04T12:11:17.661Z,98104.00
2022-11-04T12:13:58.132Z,98105.00
2022-11-04T12:17:02.578Z,98104.00
2022-11-04T12:19:50.455Z,98116.00
2022-11-04T12:22:48.780Z,98117.00
2022-11-04T12:25:51.780Z,98123.00
2022-11-04T12:28:56.976Z,98117.00
2022-11-04T12:32:07.633Z,98117.00
2022-11-04T12:35:10.043Z,98118.00
2022-11-04T12:37:54.228Z,98115.00
2022-11-04T12:40:28.196Z,98110.00
2022-11-04T12:43:28.294Z,98115.00
2022-11-04T12:46:35.536Z,98118.00
2022-11-04T12:49:21.972Z,98118.00
2022-11-04T12:52:34.791Z,98108.00
2022-11-04T12:55:47.448Z,98110.00
2022-11-04T12:58:48.981Z,98120.00
2022-11-04T13:01:25.579Z,98120.00
2022-11-04T13:04:06.976Z,98124.00
2022-11-04T13:07:23.012Z,98128.00
2022-11-04T13:09:56.724Z,98120.00
2022-11-04T13:12:36.083Z,98122.00
2022-11-04T13:15:16.631Z,98119.00
2022-11-04T13:17:46.130Z,98120.00
2022-11-04T13:20:15.823Z,98121.00
2022-11-04T13:22:51.437Z,98126.00
2022-11-04T13:25:30.206Z,98121.00
2022-11-04T13:27:59.494Z,98115.00
2022-11-04T13:30:58.640Z,98119.00
2022-11-04T13:33:55.968Z,98126.00
2022-11-04T13:36:51.996Z,98131.00
2022-11-04T13:39:34.716Z,98126.00
2022-11-04T13:42:30.086Z,98127.00
2022-11-04T13:45:06.239Z,98136.00
2022-11-04T13:47:45.623Z,98137.00
2022-11-04T13:50:37.483Z,98135.00
2022-11-04T13:53:09.635Z,98141.00
2022-11-04T13:55:49.211Z,98141.00
2022-11-04T13:58:27.171Z,98147.00
2022-11-04T14:01:24.383Z,98143.00
2022-11-04T14:03:54.391Z,98152.00
2022-11-04T14:07:03.909Z,98150.00
2022-11-04T14:09:35.787Z,98152.00
2022-11-04T14:12:13.747Z,98149.00
2022-11-04T14:15:06.185Z,98153.00
2022-11-04T14:17:35.965Z,98157.00
2022-11-04T14:20:08.369Z,98153.00
2022-11-04T14:22:51.764Z,98159.00
2022-11-04T14:25:27.252Z,98156.00
2022-11-04T14:28:02.767Z,98163.00
2022-11-04T14:30:41.405Z,98170.00
2022-11-04T14:33:39.557Z,98160.00
2022-11-04T14:36:21.105Z,98169.00
2022-11-04T14:39:07.673Z,98170.00
2022-11-04T14:41:40.537Z,98167.00
2022-11-04T14:44:13.126Z,98172.00
2022-11-04T14:46:47.815Z,98179.00
2022-11-04T14:49:45.695Z,98186.00
2022-11-04T14:52:42.281Z,98188.00
2022-11-04T14:55:17.017Z,98188.00
2022-11-04T14:57:50.408Z,98198.00
2022-11-04T15:01:01.994Z,98200.00
2022-11-04T15:06:40.566Z,98206.00
2022-11-04T15:09:23.581Z,98200.00
2022-11-04T15:12:16.677Z,98213.00
2022-11-04T15:14:43.499Z,98222.00
2022-11-04T15:17:20.416Z,98218.00
2022-11-04T15:19:53.136Z,98229.00
2022-11-04T15:22:20.759Z,98226.00
2022-11-04T15:24:47.847Z,98233.00
2022-11-04T15:27:24.358Z,98234.00
2022-11-04T15:30:02.512Z,98236.00
2022-11-04T15:32:29.554Z,98243.00
2022-11-04T15:34:57.910Z,98248.00
2022-11-04T15:37:28.790Z,98250.00
2022-11-04T15:39:58.274Z,98250.00
2022-11-04T15:42:40.652Z,98247.00
2022-11-04T15:45:38.722Z,98259.00
2022-11-04T15:48:37.908Z,98258.00
2022-11-04T15:51:21.901Z,98267.00
2022-11-04T15:53:59.798Z,98266.00
2022-11-04T15:56:32.337Z,98274.00
2022-11-04T15:59:00.806Z,98284.00
2022-11-04T16:01:29.251Z,98283.00
2022-11-04T16:04:00.152Z,98280.00
2022-11-04T16:06:43.257Z,98289.00
2022-11-04T16:09:10.970Z,98290.00
2022-11-04T16:11:38.187Z,98290.00
2022-11-04T16:14:26.870Z,98301.00
2022-11-04T16:16:54.516Z,98295.00
2022-11-04T16:19:24.844Z,98299.00
2022-11-04T16:22:20.753Z,98315.00
2022-11-04T16:24:51.480Z,98318.00
2022-11-04T16:27:22.021Z,98318.00
2022-11-04T16:30:17.709Z,98320.00
2022-11-04T16:32:48.516Z,98329.00
2022-11-04T16:35:23.944Z,98324.00
2022-11-04T16:37:52.969Z,98333.00
2022-11-04T16:40:22.529Z,98335.00
2022-11-04T16:42:50.610Z,98345.00
2022-11-04T16:45:23.210Z,98349.00
2022-11-04T16:47:51.181Z,98355.00
2022-11-04T16:50:19.062Z,98363.00
2022-11-04T16:52:46.651Z,98361.00
2022-11-04T16:55:15.539Z,98365.00
2022-11-04T16:57:44.102Z,98373.00
2022-11-04T17:00:23.670Z,98376.00
2022-11-04T17:02:51.309Z,98384.00
2022-11-04T17:05:18.512Z,98390.00
2022-11-04T17:07:53.656Z,98393.00
2022-11-04T17:10:28.602Z,98397.00
2022-11-04T17:12:55.477Z,98401.00
2022-11-04T17:15:22.617Z,98400.00
2022-11-04T17:17:49.580Z,98404.00
2022-11-04T17:20:18.097Z,98416.00
2022-11-04T17:22:47.052Z,98414.00
2022-11-04T17:25:25.054Z,98422.00
2022-11-04T17:27:52.274Z,98414.00
2022-11-04T17:30:21.884Z,98425.00
2022-11-04T17:32:49.611Z,98423.00
2022-11-04T17:35:17.108Z,98430.00
2022-11-04T17:37:44.403Z,98434.00
2022-11-04T17:40:17.737Z,98438.00
2022-11-04T17:43:10.088Z,98450.00
2022-11-04T17:45:39.056Z,98446.00
2022-11-04T17:48:07.372Z,98455.00
2022-11-04T17:50:35.007Z,98450.00
2022-11-04T17:53:01.786Z,98458.00
2022-11-04T17:55:28.621Z,98463.00
2022-11-04T17:57:55.635Z,98478.00
2022-11-04T18:00:25.864Z,98477.00
2022-11-04T18:02:52.912Z,98486.00
2022-11-04T18:05:20.289Z,98482.00
2022-11-04T18:07:47.076Z,98499.00
2022-11-04T18:10:13.940Z,98499.00
2022-11-04T18:12:41.529Z,98499.00
2022-11-04T18:15:16.941Z,98503.00
2022-11-04T18:17:45.107Z,98506.00
2022-11-04T18:20:17.555Z,98514.00
2022-11-04T18:22:44.823Z,98516.00
2022-11-04T18:25:12.755Z,98524.00
2022-11-04T18:27:39.672Z,98535.00
2022-11-04T18:30:07.366Z,98527.00
2022-11-04T18:32:34.097Z,98543.00
2022-11-04T18:35:00.895Z,98537.00
2022-11-04T18:37:29.007Z,98538.00
2022-11-04T18:39:55.832Z,98542.00
2022-11-04T18:42:23.189Z,98549.00
2022-11-04T18:44:50.045Z,98549.00
2022-11-04T18:47:17.876Z,98560.00
2022-11-04T18:49:46.129Z,98565.00
2022-11-04T18:52:12.885Z,98562.00
2022-11-04T18:54:39.756Z,98564.00
2022-11-04T18:57:06.591Z,98561.00
2022-11-04T18:59:33.416Z,98568.00
2022-11-04T19:02:00.372Z,98577.00
2022-11-04T19:04:27.553Z,98572.00
2022-11-04T19:06:54.540Z,98579.00
2022-11-04T19:12:27.625Z,98587.00
2022-11-04T19:14:54.502Z,98593.00
2022-11-04T19:17:21.736Z,98590.00
2022-11-04T19:19:49.075Z,98601.00
2022-11-04T19:22:15.840Z,98598.00
2022-11-04T19:24:42.612Z,98606.00
2022-11-04T19:27:09.421Z,98616.00
2022-11-04T19:29:36.267Z,98620.00
2022-11-04T19:32:03.351Z,98625.00
2022-11-04T19:34:30.193Z,98631.00
2022-11-04T19:36:57.039Z,98639.00
2022-11-04T19:39:23.840Z,98644.00
2022-11-04T19:42:09.160Z,98647.00
2022-11-04T19:44:35.936Z,98654.00
2022-11-04T19:47:02.815Z,98658.00
2022-11-04T19:49:31.459Z,98656.00
2022-11-04T19:51:59.427Z,98652.00
2022-11-04T19:54:28.318Z,98656.00
2022-11-04T19:56:56.112Z,98659.00
2022-11-04T19:59:22.888Z,98657.00
2022-11-04T20:01:50.514Z,98675.00
2022-11-04T20:04:17.783Z,98671.00
2022-11-04T20:06:44.665Z,98685.00
2022-11-04T20:09:11.824Z,98682.00
2022-11-04T20:12:00.390Z,98679.00
2022-11-04T20:14:29.019Z,98687.00
2022-11-04T20:16:55.967Z,98689.00
2022-11-04T20:19:23.539Z,98687.00
2022-11-04T20:21:51.017Z,98695.00
2022-11-04T20:24:18.343Z,98699.00
2022-11-04T20:26:46.939Z,98706.00
2022-11-04T20:29:15.935Z,98719.00
2022-11-04T20:31:44.097Z,98718.00
2022-11-04T20:34:14.024Z,98716.00
2022-11-04T20:36:41.805Z,98722.00
2022-11-04T20:39:15.272Z,98720.00
2022-11-04T20:41:43.581Z,98719.00
2022-11-04T20:44:12.663Z,98727.00
2022-11-04T20:46:40.054Z,98723.00
2022-11-04T20:49:07.613Z,98727.00
2022-11-04T20:51:42.071Z,98741.00
2022-11-04T20:54:12.575Z,98742.00
2022-11-04T20:56:42.232Z,98740.00
2022-11-04T20:59:10.980Z,98751.00
2022-11-04T21:01:40.892Z,98749.00
2022-11-04T21:04:14.841Z,98751.00
2022-11-04T21:06:42.487Z,98753.00
2022-11-04T21:09:12.383Z,98756.00
2022-11-04T21:11:39.686Z,98755.00
2022-11-04T21:14:08.795Z,98755.00
2022-11-04T21:16:36.134Z,98766.00
2022-11-04T21:19:04.416Z,98759.00
2022-11-04T21:21:32.565Z,98764.00
2022-11-04T21:24:02.639Z,98760.00
2022-11-04T21:26:34.030Z,98773.00
2022-11-04T21:29:05.158Z,98777.00
2022-11-04T21:31:34.958Z,98772.00
2022-11-04T21:34:03.550Z,98766.00
2022-11-04T21:36:30.832Z,98774.00
2022-11-04T21:38:59.002Z,98776.00
2022-11-04T21:41:29.630Z,98774.00
2022-11-04T21:44:05.744Z,98783.00
2022-11-04T21:46:34.889Z,98798.00
2022-11-04T21:49:02.015Z,98793.00
2022-11-04T21:51:32.193Z,98794.00
2022-11-04T21:53:59.858Z,98796.00
2022-11-04T21:56:28.905Z,98804.00
2022-11-04T21:58:56.228Z,98804.00
2022-11-04T22:01:27.838Z,98803.00
2022-11-04T22:03:59.383Z,98800.00
2022-11-04T22:06:34.235Z,98800.00
2022-11-04T22:09:03.994Z,98811.00
2022-11-04T22:11:34.069Z,98808.00
2022-11-04T22:14:04.671Z,98817.00
2022-11-04T22:16:35.320Z,98816.00
2022-11-04T22:19:05.092Z,98819.00
2022-11-04T22:21:33.251Z,98823.00
2022-11-04T22:24:00.794Z,98822.00
2022-11-04T22:26:31.004Z,98824.00
2022-11-04T22:28:58.899Z,98827.00
2022-11-04T22:31:36.858Z,98828.00
2022-11-04T22:34:05.353Z,98830.00
2022-11-04T22:36:34.004Z,98837.00
2022-11-04T22:39:00.869Z,98839.00
2022-11-04T22:41:31.580Z,98840.00
2022-11-04T22:43:59.414Z,98839.00
2022-11-04T22:46:33.228Z,98841.00
2022-11-04T22:49:00.105Z,98838.00
2022-11-04T22:51:27.575Z,98839.00
2022-11-04T22:53:59.979Z,98842.00
2022-11-04T22:56:30.109Z,98847.00
2022-11-04T22:58:56.934Z,98845.00
2022-11-04T23:01:25.855Z,98848.00
2022-11-04T23:03:53.338Z,98845.00
2022-11-04T23:06:20.256Z,98852.00
2022-11-04T23:08:47.120Z,98851.00
2022-11-04T23:11:38.595Z,98859.00
2022-11-04T23:14:24.674Z,98853.00
2022-11-04T23:17:10.990Z,98862.00
2022-11-04T23:19:38.739Z,98856.00
2022-11-04T23:22:24.965Z,98857.00
2022-11-04T23:25:09.233Z,98856.00
2022-11-04T23:28:08.137Z,98862.00
2022-11-04T23:30:45.280Z,98860.00
2022-11-04T23:33:15.074Z,98860.00
2022-11-04T23:36:04.721Z,98868.00
2022-11-04T23:38:32.599Z,98869.00
2022-11-04T23:41:23.690Z,98860.00
2022-11-04T23:43:50.512Z,98868.00
2022-11-04T23:46:42.270Z,98863.00
2022-11-04T23:49:30.280Z,98871.00
2022-11-04T23:52:15.659Z,98863.00
2022-11-04T23:55:01.132Z,98865.00
2022-11-04T23:57:46.502Z,98871.00
